createdAt,value
2019-03-24T00:01:13.100Z,99.90
2019-03-24T00:03:42.643Z,99.90
2019-03-24T00:06:12.422Z,99.90
2019-03-24T00:08:41.908Z,99.90
2019-03-24T00:11:11.608Z,99.90
2019-03-24T00:13:41.343Z,99.90
2019-03-24T00:16:11.591Z,99.90
2019-03-24T00:18:41.298Z,99.90
2019-03-24T00:21:11.527Z,99.90
2019-03-24T00:23:41.365Z,99.90
2019-03-24T00:26:11.564Z,99.90
2019-03-24T00:28:41.293Z,99.90
2019-03-24T00:31:11.618Z,99.90
2019-03-24T00:33:41.318Z,99.90
2019-03-24T00:36:11.564Z,99.90
2019-03-24T00:38:41.306Z,99.90
2019-03-24T00:41:11.695Z,99.90
2019-03-24T00:43:41.326Z,99.90
2019-03-24T00:46:11.554Z,99.90
2019-03-24T00:48:40.991Z,99.90
2019-03-24T00:51:11.551Z,99.90
2019-03-24T00:53:41.291Z,99.90
2019-03-24T00:56:11.639Z,99.90
2019-03-24T00:58:41.279Z,99.90
2019-03-24T01:01:11.565Z,99.90
2019-03-24T01:03:41.323Z,99.90
2019-03-24T01:06:11.551Z,99.90
2019-03-24T01:08:41.273Z,99.90
2019-03-24T01:11:11.577Z,99.90
2019-03-24T01:13:41.341Z,99.90
2019-03-24T01:16:11.581Z,99.90
2019-03-24T01:18:41.297Z,99.90
2019-03-24T01:21:11.591Z,99.90
2019-03-24T01:23:41.361Z,99.90
2019-03-24T01:26:11.586Z,99.90
2019-03-24T01:28:41.309Z,99.90
2019-03-24T01:31:11.610Z,99.90
2019-03-24T01:33:41.316Z,99.90
2019-03-24T01:36:11.606Z,99.90
2019-03-24T01:38:41.332Z,99.90
2019-03-24T01:41:11.624Z,99.90
2019-03-24T01:43:41.406Z,99.90
2019-03-24T01:46:11.702Z,99.90
2019-03-24T01:48:41.404Z,99.90
2019-03-24T01:51:11.642Z,99.90
2019-03-24T01:53:41.362Z,99.90
2019-03-24T01:56:11.670Z,99.90
2019-03-24T01:58:41.418Z,99.90
2019-03-24T02:01:11.647Z,99.90
2019-03-24T02:03:41.378Z,99.90
2019-03-24T02:06:11.705Z,99.90
2019-03-24T02:08:41.428Z,99.90
2019-03-24T02:11:11.695Z,99.90
2019-03-24T02:13:41.369Z,99.90
2019-03-24T02:16:11.729Z,99.90
2019-03-24T02:18:41.431Z,99.90
2019-03-24T02:21:11.708Z,99.90
2019-03-24T02:23:41.441Z,99.90
2019-03-24T02:26:11.729Z,99.90
2019-03-24T02:28:41.437Z,99.90
2019-03-24T02:31:11.788Z,99.90
2019-03-24T02:33:41.436Z,99.90
2019-03-24T02:36:11.756Z,99.90
2019-03-24T02:38:41.472Z,99.90
2019-03-24T02:41:11.748Z,99.90
2019-03-24T02:43:41.461Z,99.90
2019-03-24T02:46:23.460Z,99.90
2019-03-24T02:48:42.866Z,99.90
2019-03-24T02:51:12.608Z,99.90
2019-03-24T02:53:42.140Z,99.90
2019-03-24T02:56:11.842Z,99.90
2019-03-24T02:58:41.522Z,99.90
2019-03-24T03:01:11.788Z,99.90
2019-03-24T03:03:41.534Z,99.90
2019-03-24T03:06:11.799Z,99.90
2019-03-24T03:08:41.506Z,99.90
2019-03-24T03:11:11.798Z,99.90
2019-03-24T03:13:41.516Z,99.90
2019-03-24T03:16:11.787Z,99.90
2019-03-24T03:18:41.505Z,99.90
2019-03-24T03:21:11.800Z,99.90
2019-03-24T03:23:41.475Z,99.90
2019-03-24T03:26:11.797Z,99.90
2019-03-24T03:28:41.468Z,99.90
2019-03-24T03:31:11.821Z,99.90
2019-03-24T03:33:41.583Z,99.90
2019-03-24T03:36:11.834Z,99.90
2019-03-24T03:38:41.547Z,99.90
2019-03-24T03:41:11.791Z,99.90
2019-03-24T03:43:41.665Z,99.90
2019-03-24T03:46:11.817Z,99.90
2019-03-24T03:48:41.579Z,99.90
2019-03-24T03:51:11.855Z,99.90
2019-03-24T03:53:41.597Z,99.90
2019-03-24T03:56:11.850Z,99.90
2019-03-24T03:58:41.533Z,99.90
2019-03-24T04:01:11.879Z,99.90
2019-03-24T04:03:41.625Z,99.90
2019-03-24T04:06:11.912Z,99.90
2019-03-24T04:08:41.606Z,99.90
2019-03-24T04:11:11.931Z,99.90
2019-03-24T04:13:41.616Z,99.90
2019-03-24T04:16:11.905Z,99.90
2019-03-24T04:18:41.644Z,99.90
2019-03-24T04:21:11.906Z,99.90
2019-03-24T04:23:41.654Z,99.90
2019-03-24T04:26:11.917Z,99.90
2019-03-24T04:31:11.915Z,99.90
2019-03-24T04:33:41.287Z,99.90
2019-03-24T04:36:11.924Z,99.90
2019-03-24T04:38:41.592Z,99.90
2019-03-24T04:41:11.938Z,99.90
2019-03-24T04:43:41.676Z,99.90
2019-03-24T04:46:11.937Z,99.90
2019-03-24T04:48:41.663Z,99.90
2019-03-24T04:51:11.920Z,99.90
2019-03-24T04:53:41.635Z,99.90
2019-03-24T04:56:11.966Z,99.90
2019-03-24T04:58:41.826Z,99.90
2019-03-24T05:01:12.038Z,99.90
2019-03-24T05:03:41.707Z,99.90
2019-03-24T05:06:12.232Z,99.90
2019-03-24T05:08:41.842Z,99.90
2019-03-24T05:11:11.948Z,99.90
2019-03-24T05:13:41.326Z,99.90
2019-03-24T05:16:12.040Z,99.90
2019-03-24T05:18:41.842Z,99.90
2019-03-24T05:21:11.994Z,99.90
2019-03-24T05:23:42.231Z,99.90
2019-03-24T05:26:12.114Z,99.90
2019-03-24T05:28:41.762Z,99.90
2019-03-24T05:31:11.979Z,99.90
2019-03-24T05:33:41.690Z,99.90
2019-03-24T05:36:12.021Z,99.90
2019-03-24T05:38:41.703Z,99.90
2019-03-24T05:41:12.090Z,99.90
2019-03-24T05:43:41.765Z,99.90
2019-03-24T05:46:11.990Z,99.90
2019-03-24T05:48:41.709Z,99.90
2019-03-24T05:51:11.990Z,99.90
2019-03-24T05:53:41.710Z,99.90
2019-03-24T05:56:12.015Z,99.90
2019-03-24T05:58:41.722Z,99.90
2019-03-24T06:01:12.014Z,99.90
2019-03-24T06:03:41.721Z,99.90
2019-03-24T06:06:12.006Z,99.90
2019-03-24T06:08:41.734Z,99.90
2019-03-24T06:11:12.041Z,99.90
2019-03-24T06:13:41.790Z,99.90
2019-03-24T06:16:12.026Z,99.90
2019-03-24T06:18:41.756Z,99.90
2019-03-24T06:21:12.042Z,99.90
2019-03-24T06:23:41.766Z,99.90
2019-03-24T06:26:12.070Z,99.90
2019-03-24T06:28:41.778Z,99.90
2019-03-24T06:31:12.073Z,99.90
2019-03-24T06:33:41.851Z,99.90
2019-03-24T06:36:12.107Z,99.90
2019-03-24T06:38:41.823Z,99.90
2019-03-24T06:41:12.093Z,99.90
2019-03-24T06:43:41.805Z,99.90
2019-03-24T06:46:12.098Z,99.90
2019-03-24T06:48:41.921Z,99.90
2019-03-24T06:51:12.111Z,99.90
2019-03-24T06:53:41.877Z,99.90
2019-03-24T06:56:12.124Z,99.90
2019-03-24T06:58:41.909Z,99.90
2019-03-24T07:01:12.135Z,99.90
2019-03-24T07:03:41.845Z,99.90
2019-03-24T07:06:12.128Z,99.90
2019-03-24T07:08:41.966Z,99.90
2019-03-24T07:11:13.825Z,99.90
2019-03-24T07:13:43.517Z,99.90
2019-03-24T07:16:13.067Z,99.90
2019-03-24T07:18:42.430Z,99.90
2019-03-24T07:21:12.229Z,99.90
2019-03-24T07:23:41.913Z,99.90
2019-03-24T07:26:12.150Z,99.90
2019-03-24T07:28:41.528Z,99.90
2019-03-24T07:31:12.199Z,99.90
2019-03-24T07:33:41.921Z,99.90
2019-03-24T07:36:12.206Z,99.90
2019-03-24T07:38:41.879Z,99.90
2019-03-24T07:41:12.223Z,99.90
2019-03-24T07:43:41.934Z,99.90
2019-03-24T07:46:12.223Z,99.90
2019-03-24T07:48:41.966Z,99.90
2019-03-24T07:51:12.258Z,99.90
2019-03-24T07:53:41.978Z,99.90
2019-03-24T07:56:12.244Z,99.90
2019-03-24T07:58:41.976Z,99.90
2019-03-24T08:01:12.275Z,99.90
2019-03-24T08:03:41.973Z,99.90
2019-03-24T08:06:12.254Z,99.90
2019-03-24T08:08:44.495Z,99.90
2019-03-24T08:11:13.197Z,99.90
2019-03-24T08:13:53.348Z,99.90
2019-03-24T08:16:14.202Z,99.90
2019-03-24T08:18:43.944Z,99.90
2019-03-24T08:21:13.414Z,99.90
2019-03-24T08:23:43.047Z,99.90
2019-03-24T08:26:12.538Z,99.90
2019-03-24T08:28:42.003Z,99.90
2019-03-24T08:31:12.320Z,99.90
2019-03-24T08:33:42.008Z,99.90
2019-03-24T08:36:12.304Z,99.90
2019-03-24T08:38:42.074Z,99.90
2019-03-24T08:41:12.346Z,99.90
2019-03-24T08:43:42.058Z,99.90
2019-03-24T08:46:12.335Z,99.90
2019-03-24T08:48:42.063Z,99.90
2019-03-24T08:51:12.334Z,99.90
2019-03-24T08:53:42.006Z,99.90
2019-03-24T08:56:12.361Z,99.90
2019-03-24T08:58:42.070Z,99.90
2019-03-24T09:01:12.357Z,99.90
2019-03-24T09:03:44.884Z,99.50
2019-03-24T09:06:13.363Z,99.80
2019-03-24T09:08:43.063Z,98.30
2019-03-24T09:11:12.517Z,96.80
2019-03-24T09:13:42.101Z,96.30
2019-03-24T09:16:12.379Z,95.80
2019-03-24T09:18:52.065Z,96.40
2019-03-24T09:21:13.314Z,97.30
2019-03-24T09:23:43.122Z,97.40
2019-03-24T09:26:12.605Z,97.80
2019-03-24T09:28:42.126Z,96.20
2019-03-24T09:31:12.404Z,95.10
2019-03-24T09:33:42.139Z,96.60
2019-03-24T09:36:12.396Z,96.00
2019-03-24T09:38:42.130Z,95.00
2019-03-24T09:41:12.522Z,95.30
2019-03-24T09:43:42.158Z,95.70
2019-03-24T09:46:12.487Z,94.50
2019-03-24T09:48:42.178Z,93.40
2019-03-24T09:51:12.450Z,92.70
2019-03-24T09:53:42.174Z,92.70
2019-03-24T09:56:12.462Z,92.80
2019-03-24T09:58:42.187Z,91.10
2019-03-24T10:01:12.480Z,90.60
2019-03-24T10:03:42.190Z,90.10
2019-03-24T10:06:12.450Z,91.70
2019-03-24T10:08:46.994Z,92.80
2019-03-24T10:11:13.393Z,92.50
2019-03-24T10:13:42.880Z,98.90
2019-03-24T10:16:12.541Z,90.80
2019-03-24T10:18:42.254Z,82.00
2019-03-24T10:21:12.491Z,83.20
2019-03-24T10:23:42.327Z,79.10
2019-03-24T10:26:12.495Z,77.70
2019-03-24T10:28:42.189Z,84.70
2019-03-24T10:31:12.519Z,74.80
2019-03-24T10:33:42.276Z,73.40
2019-03-24T10:36:12.505Z,73.80
2019-03-24T10:38:42.315Z,77.50
2019-03-24T10:41:12.511Z,71.10
2019-03-24T10:43:42.291Z,71.10
2019-03-24T10:46:12.514Z,74.40
2019-03-24T10:48:42.225Z,71.30
2019-03-24T10:51:12.506Z,81.50
2019-03-24T10:53:42.306Z,65.80
2019-03-24T10:56:12.531Z,64.00
2019-03-24T10:58:42.295Z,64.30
2019-03-24T11:01:12.526Z,63.70
2019-03-24T11:03:42.256Z,63.40
2019-03-24T11:06:12.542Z,63.50
2019-03-24T11:08:42.244Z,61.50
2019-03-24T11:11:12.568Z,62.10
2019-03-24T11:13:42.286Z,64.80
2019-03-24T11:16:12.608Z,63.80
2019-03-24T11:18:42.328Z,59.70
2019-03-24T11:21:12.578Z,59.50
2019-03-24T11:23:42.355Z,58.70
2019-03-24T11:26:12.591Z,59.20
2019-03-24T11:28:41.995Z,58.50
2019-03-24T11:31:12.595Z,59.60
2019-03-24T11:33:42.373Z,57.10
2019-03-24T11:36:12.623Z,57.00
2019-03-24T11:38:42.379Z,57.50
2019-03-24T11:41:12.597Z,56.60
2019-03-24T11:43:42.317Z,56.10
2019-03-24T11:46:12.617Z,56.50
2019-03-24T11:48:42.349Z,55.50
2019-03-24T11:51:12.629Z,52.80
2019-03-24T11:53:42.384Z,52.00
2019-03-24T11:56:12.606Z,52.80
2019-03-24T11:58:42.382Z,53.40
2019-03-24T12:01:12.681Z,54.60
2019-03-24T12:03:42.406Z,52.90
2019-03-24T12:06:14.660Z,52.20
2019-03-24T12:08:43.865Z,50.30
2019-03-24T12:11:13.588Z,51.20
2019-03-24T12:13:43.046Z,50.70
2019-03-24T12:16:12.972Z,51.40
2019-03-24T12:18:42.443Z,50.10
2019-03-24T12:21:12.707Z,48.70
2019-03-24T12:23:42.476Z,49.10
2019-03-24T12:26:12.690Z,50.30
2019-03-24T12:28:42.058Z,48.80
2019-03-24T12:31:12.711Z,48.10
2019-03-24T12:33:42.115Z,48.00
2019-03-24T12:36:12.719Z,47.20
2019-03-24T12:38:42.393Z,46.00
2019-03-24T12:41:12.788Z,45.40
2019-03-24T12:43:42.770Z,45.00
2019-03-24T12:46:12.738Z,43.60
2019-03-24T12:48:42.747Z,44.00
2019-03-24T12:51:12.842Z,43.50
2019-03-24T12:53:42.757Z,42.00
2019-03-24T12:56:13.057Z,42.00
2019-03-24T12:58:42.779Z,43.70
2019-03-24T13:01:12.855Z,44.00
2019-03-24T13:03:42.773Z,43.40
2019-03-24T13:06:13.161Z,43.60
2019-03-24T13:08:42.785Z,42.80
2019-03-24T13:11:12.855Z,42.30
2019-03-24T13:13:42.570Z,40.60
2019-03-24T13:16:12.806Z,40.80
2019-03-24T13:18:42.611Z,41.20
2019-03-24T13:21:13.163Z,41.40
2019-03-24T13:23:42.893Z,41.30
2019-03-24T13:26:13.094Z,40.30
2019-03-24T13:28:42.755Z,38.90
2019-03-24T13:31:13.037Z,39.00
2019-03-24T13:33:42.818Z,38.70
2019-03-24T13:36:13.662Z,39.50
2019-03-24T13:38:43.113Z,39.80
2019-03-24T13:41:12.895Z,39.70
2019-03-24T13:43:42.616Z,39.80
2019-03-24T13:46:13.157Z,38.20
2019-03-24T13:48:42.859Z,37.20
2019-03-24T13:51:13.145Z,37.50
2019-03-24T13:53:42.867Z,38.20
2019-03-24T13:56:12.931Z,38.60
2019-03-24T13:58:42.866Z,37.60
2019-03-24T14:01:13.911Z,37.30
2019-03-24T14:03:43.877Z,36.30
2019-03-24T14:06:13.701Z,36.60
2019-03-24T14:08:43.142Z,36.80
2019-03-24T14:11:12.942Z,37.30
2019-03-24T14:13:42.668Z,37.10
2019-03-24T14:16:13.170Z,36.50
2019-03-24T14:18:42.905Z,35.70
2019-03-24T14:21:12.972Z,35.50
2019-03-24T14:23:42.912Z,35.90
2019-03-24T14:26:12.982Z,35.00
2019-03-24T14:28:42.770Z,35.60
2019-03-24T14:31:12.942Z,34.60
2019-03-24T14:33:42.582Z,33.70
2019-03-24T14:36:12.934Z,31.80
2019-03-24T14:38:42.694Z,29.90
2019-03-24T14:41:12.971Z,29.30
2019-03-24T14:43:42.769Z,28.40
2019-03-24T14:46:13.024Z,27.50
2019-03-24T14:48:42.836Z,27.20
2019-03-24T14:51:13.034Z,26.60
2019-03-24T14:53:42.755Z,26.30
2019-03-24T14:56:12.979Z,26.80
2019-03-24T14:58:42.705Z,26.60
2019-03-24T15:01:12.994Z,26.40
2019-03-24T15:03:42.795Z,26.20
2019-03-24T15:06:13.045Z,25.40
2019-03-24T15:08:44.123Z,25.70
2019-03-24T15:11:14.091Z,26.30
2019-03-24T15:13:43.877Z,26.60
2019-03-24T15:16:13.339Z,26.70
2019-03-24T15:18:43.096Z,26.50
2019-03-24T15:21:13.216Z,26.50
2019-03-24T15:23:42.963Z,26.60
2019-03-24T15:26:13.225Z,26.90
2019-03-24T15:28:43.039Z,27.80
2019-03-24T15:31:15.378Z,28.20
2019-03-24T15:33:45.144Z,27.60
2019-03-24T15:36:14.877Z,27.70
2019-03-24T15:38:44.926Z,27.60
2019-03-24T15:41:14.884Z,27.50
2019-03-24T15:43:44.926Z,28.00
2019-03-24T15:46:14.954Z,27.90
2019-03-24T15:48:44.767Z,27.70
2019-03-24T15:51:17.036Z,27.10
2019-03-24T15:53:45.910Z,27.70
2019-03-24T15:56:15.391Z,28.50
2019-03-24T15:58:45.291Z,30.00
2019-03-24T16:01:15.018Z,30.00
2019-03-24T16:03:44.779Z,30.20
2019-03-24T16:06:14.509Z,29.90
2019-03-24T16:08:44.324Z,31.10
2019-03-24T16:11:16.043Z,32.40
2019-03-24T16:13:45.217Z,33.40
2019-03-24T16:16:15.310Z,34.00
2019-03-24T16:18:45.134Z,34.30
2019-03-24T16:21:15.156Z,34.40
2019-03-24T16:23:45.126Z,34.40
2019-03-24T16:26:15.148Z,35.80
2019-03-24T16:28:44.925Z,37.40
2019-03-24T16:31:14.534Z,38.30
2019-03-24T16:33:45.176Z,39.30
2019-03-24T16:36:19.471Z,40.00
2019-03-24T16:39:02.950Z,41.10
2019-03-24T16:41:22.710Z,41.70
2019-03-24T16:43:52.845Z,43.70
2019-03-24T16:46:22.882Z,45.10
2019-03-24T16:48:55.816Z,45.50
2019-03-24T16:51:38.012Z,46.10
2019-03-24T16:53:58.496Z,46.90
2019-03-24T16:56:28.560Z,47.50
2019-03-24T16:58:58.653Z,48.00
2019-03-24T17:01:28.639Z,48.40
2019-03-24T17:03:58.343Z,49.60
2019-03-24T17:06:28.555Z,49.50
2019-03-24T17:09:00.779Z,50.00
2019-03-24T17:11:30.303Z,50.30
2019-03-24T17:14:00.007Z,50.80
2019-03-24T17:16:30.032Z,51.20
2019-03-24T17:19:01.281Z,51.50
2019-03-24T17:21:31.099Z,51.80
2019-03-24T17:24:00.988Z,52.30
2019-03-24T17:26:35.308Z,52.80
2019-03-24T17:29:05.875Z,53.20
2019-03-24T17:31:35.381Z,53.70
2019-03-24T17:34:06.639Z,54.10
2019-03-24T17:36:36.237Z,54.40
2019-03-24T17:39:07.404Z,54.90
2019-03-24T17:41:36.987Z,55.60
2019-03-24T17:44:06.587Z,56.20
2019-03-24T17:46:36.501Z,57.30
2019-03-24T17:49:06.079Z,58.10
2019-03-24T17:51:36.127Z,59.30
2019-03-24T17:54:06.039Z,61.50
2019-03-24T17:56:35.629Z,65.40
2019-03-24T17:59:05.153Z,70.60
2019-03-24T18:01:34.751Z,76.70
2019-03-24T18:04:04.221Z,85.40
2019-03-24T18:06:34.031Z,92.00
2019-03-24T18:09:05.818Z,96.70
2019-03-24T18:11:35.437Z,99.90
2019-03-24T18:14:06.465Z,99.90
2019-03-24T18:16:36.980Z,99.90
2019-03-24T18:19:11.031Z,99.90
2019-03-24T18:21:43.693Z,99.90
2019-03-24T18:24:13.446Z,99.90
2019-03-24T18:26:44.635Z,99.90
2019-03-24T18:29:14.203Z,99.90
2019-03-24T18:31:43.737Z,99.90
2019-03-24T18:34:13.359Z,99.90
2019-03-24T18:36:44.705Z,99.90
2019-03-24T18:39:14.412Z,99.90
2019-03-24T18:41:44.262Z,99.90
2019-03-24T18:44:15.860Z,99.90
2019-03-24T18:46:45.478Z,99.90
2019-03-24T18:49:15.224Z,99.90
2019-03-24T18:51:45.036Z,99.90
2019-03-24T18:54:14.484Z,99.90
2019-03-24T18:56:44.262Z,99.90
2019-03-24T18:59:13.734Z,99.90
2019-03-24T19:01:44.473Z,99.90
2019-03-24T19:04:14.316Z,99.90
2019-03-24T19:06:44.197Z,99.90
2019-03-24T19:09:13.726Z,99.90
2019-03-24T19:11:46.533Z,99.90
2019-03-24T19:14:21.218Z,99.90
2019-03-24T19:16:50.768Z,99.90
2019-03-24T19:19:20.760Z,99.90
2019-03-24T19:21:54.891Z,99.90
2019-03-24T19:24:24.430Z,99.90
2019-03-24T19:26:54.320Z,99.90
2019-03-24T19:29:24.190Z,99.90
2019-03-24T19:31:55.404Z,99.90
2019-03-24T19:34:25.226Z,99.90
2019-03-24T19:36:58.877Z,99.90
2019-03-24T19:39:29.019Z,99.90
2019-03-24T19:41:58.635Z,99.90
2019-03-24T19:44:28.382Z,99.90
2019-03-24T19:46:57.873Z,99.90
2019-03-24T19:49:27.468Z,99.90
2019-03-24T19:51:57.413Z,99.90
2019-03-24T19:54:35.032Z,99.90
2019-03-24T19:57:06.837Z,99.90
2019-03-24T19:59:36.499Z,99.90
2019-03-24T20:02:06.231Z,99.90
2019-03-24T20:04:37.157Z,99.90
2019-03-24T20:07:06.941Z,99.90
2019-03-24T20:09:36.443Z,99.90
2019-03-24T20:12:09.603Z,99.90
2019-03-24T20:14:39.342Z,99.90
2019-03-24T20:17:12.236Z,99.90
2019-03-24T20:19:41.398Z,99.90
2019-03-24T20:22:11.985Z,99.90
2019-03-24T20:24:41.512Z,99.90
2019-03-24T20:27:11.559Z,99.90
2019-03-24T20:29:41.368Z,99.90
2019-03-24T20:32:11.506Z,99.90
2019-03-24T20:34:41.371Z,99.90
2019-03-24T20:37:11.288Z,99.90
2019-03-24T20:39:40.886Z,99.90
2019-03-24T20:42:10.704Z,99.90
2019-03-24T20:44:40.603Z,99.90
2019-03-24T20:47:10.303Z,99.90
2019-03-24T20:49:39.861Z,99.90
2019-03-24T20:52:11.064Z,99.90
2019-03-24T20:54:40.963Z,99.90
2019-03-24T20:57:16.100Z,99.90
2019-03-24T20:59:46.080Z,99.90
2019-03-24T21:02:15.908Z,99.90
2019-03-24T21:04:48.109Z,99.90
2019-03-24T21:07:18.184Z,99.90
2019-03-24T21:09:47.972Z,99.90
2019-03-24T21:12:17.791Z,99.90
2019-03-24T21:14:49.455Z,99.90
2019-03-24T21:17:19.525Z,99.90
2019-03-24T21:19:49.369Z,99.90
2019-03-24T21:22:18.905Z,99.90
2019-03-24T21:24:48.558Z,99.90
2019-03-24T21:27:18.560Z,99.90
2019-03-24T21:29:49.069Z,99.90
2019-03-24T21:32:18.647Z,99.90
2019-03-24T21:34:48.431Z,99.90
2019-03-24T21:37:19.629Z,99.90
2019-03-24T21:39:49.678Z,99.90
2019-03-24T21:42:19.440Z,99.90
2019-03-24T21:44:48.975Z,99.90
2019-03-24T21:47:18.527Z,99.90
2019-03-24T21:49:48.011Z,99.90
2019-03-24T21:52:17.526Z,99.90
2019-03-24T21:54:47.450Z,99.90
2019-03-24T21:57:16.985Z,99.90
2019-03-24T21:59:46.476Z,99.90
2019-03-24T22:02:15.949Z,99.90
2019-03-24T22:04:45.472Z,99.90
2019-03-24T22:07:14.917Z,99.90
2019-03-24T22:09:44.420Z,99.90
2019-03-24T22:12:13.870Z,99.90
2019-03-24T22:14:43.432Z,99.90
2019-03-24T22:17:13.672Z,99.90
2019-03-24T22:19:43.442Z,99.90
2019-03-24T22:22:13.684Z,99.90
2019-03-24T22:24:43.434Z,99.90
2019-03-24T22:27:13.712Z,99.90
2019-03-24T22:29:43.465Z,99.90
2019-03-24T22:32:13.716Z,99.90
2019-03-24T22:34:43.616Z,99.90
2019-03-24T22:37:16.072Z,99.90
2019-03-24T22:39:48.943Z,99.90
2019-03-24T22:42:18.593Z,99.90
2019-03-24T22:44:48.070Z,99.90
2019-03-24T22:47:17.603Z,99.90
2019-03-24T22:49:47.047Z,99.90
2019-03-24T22:52:16.647Z,99.90
2019-03-24T22:54:46.389Z,99.90
2019-03-24T22:57:15.865Z,99.90
2019-03-24T22:59:45.453Z,99.90
2019-03-24T23:02:15.025Z,99.90
2019-03-24T23:04:44.491Z,99.90
2019-03-24T23:07:13.951Z,99.90
2019-03-24T23:09:43.479Z,99.90
2019-03-24T23:12:13.745Z,99.90
2019-03-24T23:14:43.473Z,99.90
2019-03-24T23:17:13.816Z,99.90
2019-03-24T23:19:43.532Z,99.90
2019-03-24T23:22:13.888Z,99.90
2019-03-24T23:24:43.491Z,99.90
2019-03-24T23:27:13.814Z,99.90
2019-03-24T23:29:43.488Z,99.90
2019-03-24T23:32:13.770Z,99.90
2019-03-24T23:34:43.487Z,99.90
2019-03-24T23:37:13.790Z,99.90
2019-03-24T23:39:43.432Z,99.90
2019-03-24T23:42:13.790Z,99.90
2019-03-24T23:44:43.498Z,99.90
2019-03-24T23:47:13.770Z,99.90
2019-03-24T23:49:43.134Z,99.90
2019-03-24T23:52:13.787Z,99.90
2019-03-24T23:54:43.462Z,99.90
2019-03-24T23:57:13.803Z,99.90
2019-03-24T23:59:43.166Z,99.90
